createdAt,value
2018-06-11T00:00:01.526Z,16.70
2018-06-11T00:02:29.782Z,16.60
2018-06-11T00:04:57.953Z,16.60
2018-06-11T00:07:26.121Z,16.50
2018-06-11T00:09:54.538Z,16.50
2018-06-11T00:12:22.732Z,16.50
2018-06-11T00:14:50.904Z,16.50
2018-06-11T00:17:19.077Z,16.50
2018-06-11T00:19:47.229Z,16.50
2018-06-11T00:22:15.411Z,16.60
2018-06-11T00:24:43.640Z,16.60
2018-06-11T00:27:11.848Z,16.60
2018-06-11T00:29:40.005Z,16.60
2018-06-11T00:32:08.169Z,16.50
2018-06-11T00:34:36.321Z,16.50
2018-06-11T00:37:04.615Z,16.50
2018-06-11T00:39:32.828Z,16.40
2018-06-11T00:42:01.002Z,16.50
2018-06-11T00:44:29.159Z,16.50
2018-06-11T00:46:57.312Z,16.40
2018-06-11T00:49:25.609Z,16.50
2018-06-11T00:51:53.804Z,16.50
2018-06-11T00:54:21.933Z,16.50
2018-06-11T00:56:50.130Z,16.40
2018-06-11T00:59:18.276Z,16.30
2018-06-11T01:01:46.475Z,16.30
2018-06-11T01:04:14.654Z,16.20
2018-06-11T01:06:42.872Z,16.20
2018-06-11T01:09:11.056Z,16.20
2018-06-11T01:14:07.154Z,16.20
2018-06-11T01:16:35.422Z,16.20
2018-06-11T01:19:03.589Z,16.30
2018-06-11T01:21:31.749Z,16.30
2018-06-11T01:23:59.997Z,16.40
2018-06-11T01:26:28.512Z,16.50
2018-06-11T01:28:56.690Z,16.50
2018-06-11T01:31:24.880Z,16.60
2018-06-11T01:33:53.180Z,16.60
2018-06-11T01:36:21.321Z,16.60
2018-06-11T01:38:49.467Z,16.60
2018-06-11T01:41:17.652Z,16.60
2018-06-11T01:43:45.857Z,16.60
2018-06-11T01:46:14.024Z,16.60
2018-06-11T01:48:42.188Z,16.60
2018-06-11T01:51:10.341Z,16.60
2018-06-11T01:53:38.496Z,16.50
2018-06-11T01:56:06.854Z,16.40
2018-06-11T01:58:35.198Z,16.40
2018-06-11T02:01:03.345Z,16.40
2018-06-11T02:03:31.517Z,16.40
2018-06-11T02:05:59.688Z,16.40
2018-06-11T02:08:27.844Z,16.40
2018-06-11T02:10:55.999Z,16.30
2018-06-11T02:13:24.205Z,16.30
2018-06-11T02:15:52.373Z,16.30
2018-06-11T02:18:20.549Z,16.30
2018-06-11T02:20:48.708Z,16.30
2018-06-11T02:23:16.870Z,16.30
2018-06-11T02:25:45.021Z,16.40
2018-06-11T02:28:13.181Z,16.30
2018-06-11T02:30:41.347Z,16.30
2018-06-11T02:33:09.520Z,16.30
2018-06-11T02:35:37.717Z,16.30
2018-06-11T02:38:05.870Z,16.30
2018-06-11T02:40:34.080Z,16.30
2018-06-11T02:43:02.270Z,16.30
2018-06-11T02:45:30.453Z,16.30
2018-06-11T02:47:58.900Z,16.30
2018-06-11T02:50:27.129Z,16.30
2018-06-11T02:52:55.308Z,16.30
2018-06-11T02:55:23.503Z,16.30
2018-06-11T02:57:51.844Z,16.30
2018-06-11T03:02:47.979Z,16.40
2018-06-11T03:05:16.149Z,16.40
2018-06-11T03:07:44.572Z,16.50
2018-06-11T03:10:12.735Z,16.50
2018-06-11T03:12:40.905Z,16.60
2018-06-11T03:15:09.055Z,16.60
2018-06-11T03:17:37.212Z,16.50
2018-06-11T03:20:05.484Z,16.50
2018-06-11T03:22:33.647Z,16.50
2018-06-11T03:27:29.757Z,16.40
2018-06-11T03:29:57.940Z,16.40
2018-06-11T03:32:26.069Z,16.40
2018-06-11T03:34:54.251Z,16.30
2018-06-11T03:37:22.411Z,16.30
2018-06-11T03:39:50.600Z,16.30
2018-06-11T03:42:18.800Z,16.20
2018-06-11T03:44:47.010Z,16.20
2018-06-11T03:47:15.205Z,16.20
2018-06-11T03:49:43.410Z,16.20
2018-06-11T03:52:12.219Z,16.20
2018-06-11T03:54:40.380Z,16.20
2018-06-11T03:57:08.591Z,16.20
2018-06-11T03:59:36.764Z,16.20
2018-06-11T04:02:04.907Z,16.20
2018-06-11T04:04:33.075Z,16.20
2018-06-11T04:07:01.251Z,16.20
2018-06-11T04:09:29.398Z,16.20
2018-06-11T04:11:57.617Z,16.20
2018-06-11T04:14:25.761Z,16.30
2018-06-11T04:16:53.924Z,16.30
2018-06-11T04:21:50.013Z,16.40
2018-06-11T04:24:18.193Z,16.50
2018-06-11T04:26:46.357Z,16.50
2018-06-11T04:29:14.546Z,16.60
2018-06-11T04:36:35.165Z,16.80
2018-06-11T04:39:03.416Z,17.00
2018-06-11T04:41:31.589Z,17.00
2018-06-11T04:43:59.804Z,17.10
2018-06-11T04:46:27.974Z,17.20
2018-06-11T04:48:56.201Z,17.20
2018-06-11T04:51:24.372Z,17.30
2018-06-11T04:53:52.671Z,17.30
2018-06-11T04:56:20.936Z,17.50
2018-06-11T04:58:49.102Z,17.50
2018-06-11T05:01:17.320Z,17.50
2018-06-11T05:03:45.474Z,17.60
2018-06-11T05:06:13.656Z,17.60
2018-06-11T05:08:41.934Z,17.70
2018-06-11T05:11:10.288Z,17.90
2018-06-11T05:13:38.534Z,18.00
2018-06-11T05:16:06.725Z,18.00
2018-06-11T05:18:34.891Z,18.20
2018-06-11T05:21:03.091Z,18.30
2018-06-11T05:23:31.259Z,18.40
2018-06-11T05:25:59.600Z,18.60
2018-06-11T05:28:27.800Z,18.70
2018-06-11T05:30:55.998Z,18.90
2018-06-11T05:33:24.177Z,19.10
2018-06-11T05:35:52.352Z,19.30
2018-06-11T05:38:20.518Z,19.40
2018-06-11T05:40:48.729Z,19.60
2018-06-11T05:43:16.926Z,19.80
2018-06-11T05:45:45.216Z,19.90
2018-06-11T05:48:13.400Z,19.90
2018-06-11T05:50:41.709Z,20.00
2018-06-11T05:55:38.033Z,20.20
2018-06-11T05:58:06.214Z,20.20
2018-06-11T06:00:34.378Z,20.20
2018-06-11T06:03:02.563Z,20.30
2018-06-11T06:05:30.721Z,20.40
2018-06-11T06:07:58.860Z,20.40
2018-06-11T06:10:27.057Z,20.40
2018-06-11T06:12:55.216Z,20.50
2018-06-11T06:15:23.404Z,20.60
2018-06-11T06:17:51.904Z,20.80
2018-06-11T06:20:20.075Z,20.90
2018-06-11T06:22:48.262Z,21.00
2018-06-11T06:25:16.489Z,21.20
2018-06-11T06:27:44.736Z,21.30
2018-06-11T06:30:12.920Z,21.60
2018-06-11T06:32:41.133Z,21.90
2018-06-11T06:35:09.486Z,22.00
2018-06-11T06:37:39.773Z,22.20
2018-06-11T06:40:07.947Z,22.40
2018-06-11T06:42:36.109Z,22.70
2018-06-11T06:45:04.931Z,22.90
2018-06-11T06:47:33.134Z,22.80
2018-06-11T06:50:01.294Z,22.70
2018-06-11T06:52:29.568Z,22.80
2018-06-11T06:54:57.735Z,22.70
2018-06-11T06:59:53.854Z,22.60
2018-06-11T07:02:22.313Z,22.60
2018-06-11T07:04:50.513Z,22.40
2018-06-11T07:07:18.769Z,22.30
2018-06-11T07:09:47.000Z,22.10
2018-06-11T07:12:15.172Z,22.10
2018-06-11T07:14:43.404Z,22.00
2018-06-11T07:17:11.628Z,22.00
2018-06-11T07:19:39.797Z,22.00
2018-06-11T07:22:07.958Z,21.90
2018-06-11T07:24:36.128Z,21.90
2018-06-11T07:27:04.346Z,21.80
2018-06-11T07:29:32.546Z,21.80
2018-06-11T07:32:00.801Z,21.80
2018-06-11T07:34:28.969Z,21.90
2018-06-11T07:36:57.174Z,21.90
2018-06-11T07:39:25.335Z,22.00
2018-06-11T07:41:53.534Z,22.10
2018-06-11T07:44:21.691Z,22.30
2018-06-11T07:46:49.883Z,22.60
2018-06-11T07:49:18.052Z,22.80
2018-06-11T07:51:46.316Z,23.10
2018-06-11T07:54:14.433Z,23.50
2018-06-11T07:56:42.615Z,23.80
2018-06-11T07:59:10.900Z,23.70
2018-06-11T08:01:39.107Z,23.80
2018-06-11T08:04:07.300Z,24.20
2018-06-11T08:06:35.550Z,24.40
2018-06-11T08:11:32.853Z,24.70
2018-06-11T08:14:01.006Z,24.90
2018-06-11T08:16:29.189Z,24.80
2018-06-11T08:18:57.379Z,24.90
2018-06-11T08:21:25.561Z,25.00
2018-06-11T08:23:53.717Z,25.10
2018-06-11T08:26:21.901Z,25.20
2018-06-11T08:28:50.088Z,25.30
2018-06-11T08:31:18.290Z,25.40
2018-06-11T08:33:46.494Z,25.50
2018-06-11T08:36:14.667Z,25.70
2018-06-11T08:38:42.816Z,25.70
2018-06-11T08:41:11.125Z,25.80
2018-06-11T08:43:39.292Z,25.90
2018-06-11T08:46:07.453Z,25.90
2018-06-11T08:48:35.650Z,25.90
2018-06-11T08:51:03.848Z,25.70
2018-06-11T08:53:31.993Z,25.70
2018-06-11T08:56:00.282Z,25.60
2018-06-11T08:58:28.468Z,25.60
2018-06-11T09:00:56.673Z,25.50
2018-06-11T09:03:24.852Z,25.60
2018-06-11T09:05:53.060Z,25.60
2018-06-11T09:08:21.294Z,25.60
2018-06-11T09:10:49.477Z,25.70
2018-06-11T09:13:17.638Z,25.90
2018-06-11T09:15:45.921Z,26.00
2018-06-11T09:18:14.201Z,26.10
2018-06-11T09:20:42.271Z,26.30
2018-06-11T09:23:10.452Z,26.50
2018-06-11T09:25:38.630Z,26.70
2018-06-11T09:28:06.788Z,27.00
2018-06-11T09:30:34.961Z,27.30
2018-06-11T09:33:03.168Z,27.80
2018-06-11T09:35:31.364Z,28.20
2018-06-11T09:37:59.526Z,28.60
2018-06-11T09:42:55.631Z,29.40
2018-06-11T09:45:23.833Z,29.40
2018-06-11T09:47:51.993Z,29.50
2018-06-11T09:50:20.166Z,29.90
2018-06-11T09:52:48.320Z,30.10
2018-06-11T09:55:16.506Z,30.20
2018-06-11T09:57:44.699Z,30.30
2018-06-11T10:00:18.455Z,30.40
2018-06-11T10:02:46.625Z,30.50
2018-06-11T10:05:14.822Z,30.50
2018-06-11T10:07:43.022Z,30.60
2018-06-11T10:10:11.156Z,30.40
2018-06-11T10:12:39.329Z,30.20
2018-06-11T10:15:07.526Z,30.00
2018-06-11T10:20:03.628Z,29.50
2018-06-11T10:22:31.822Z,29.20
2018-06-11T10:24:59.973Z,29.10
2018-06-11T10:27:28.140Z,29.00
2018-06-11T10:29:56.316Z,29.00
2018-06-11T10:32:24.603Z,29.00
2018-06-11T10:34:52.753Z,29.00
2018-06-11T10:37:20.943Z,28.90
2018-06-11T10:39:49.093Z,28.90
2018-06-11T10:42:17.224Z,28.80
2018-06-11T10:44:45.510Z,28.70
2018-06-11T10:47:13.813Z,28.50
2018-06-11T10:49:42.076Z,28.50
2018-06-11T10:52:10.218Z,28.60
2018-06-11T10:54:38.407Z,28.70
2018-06-11T10:57:06.549Z,28.80
2018-06-11T10:59:34.743Z,28.90
2018-06-11T11:02:02.907Z,28.80
2018-06-11T11:06:59.052Z,29.10
2018-06-11T11:09:27.212Z,29.20
2018-06-11T11:11:55.372Z,29.30
2018-06-11T11:14:23.937Z,29.30
2018-06-11T11:16:52.361Z,29.20
2018-06-11T11:19:27.797Z,29.40
2018-06-11T11:21:56.051Z,29.60
2018-06-11T11:24:25.406Z,29.90
2018-06-11T11:26:53.626Z,30.00
2018-06-11T11:31:49.701Z,30.40
2018-06-11T11:34:17.832Z,30.60
2018-06-11T11:36:45.981Z,30.70
2018-06-11T11:39:14.309Z,30.80
2018-06-11T11:41:42.453Z,31.00
2018-06-11T11:44:10.626Z,31.10
2018-06-11T11:46:38.799Z,31.30
2018-06-11T11:49:06.972Z,31.50
2018-06-11T11:51:35.133Z,31.40
2018-06-11T11:54:03.341Z,31.20
2018-06-11T11:56:31.530Z,31.00
2018-06-11T11:58:59.672Z,31.10
2018-06-11T12:01:27.996Z,31.20
2018-06-11T12:03:56.152Z,31.10
2018-06-11T12:06:24.363Z,31.10
2018-06-11T12:08:52.511Z,31.20
2018-06-11T12:11:20.666Z,31.20
2018-06-11T12:13:48.864Z,31.10
2018-06-11T12:16:17.079Z,31.00
2018-06-11T12:18:45.301Z,31.10
2018-06-11T12:21:13.689Z,31.20
2018-06-11T12:23:41.878Z,31.30
2018-06-11T12:26:10.033Z,31.30
2018-06-11T12:28:38.203Z,31.30
2018-06-11T12:31:06.402Z,31.20
2018-06-11T12:33:34.563Z,31.10
2018-06-11T12:36:02.748Z,30.90
2018-06-11T12:38:30.900Z,30.40
2018-06-11T12:43:27.784Z,30.10
2018-06-11T12:45:56.004Z,29.90
2018-06-11T12:48:24.179Z,29.80
2018-06-11T12:50:52.365Z,29.70
2018-06-11T12:53:20.557Z,29.70
2018-06-11T12:55:48.737Z,29.80
2018-06-11T12:58:16.899Z,29.90
2018-06-11T13:00:45.081Z,30.10
2018-06-11T13:03:13.274Z,30.40
2018-06-11T13:05:41.485Z,30.80
2018-06-11T13:08:09.681Z,31.40
2018-06-11T13:10:37.847Z,32.20
2018-06-11T13:13:06.013Z,33.10
2018-06-11T13:15:34.186Z,33.60
2018-06-11T13:18:02.373Z,33.80
2018-06-11T13:20:30.628Z,34.10
2018-06-11T13:22:58.864Z,34.00
2018-06-11T13:25:27.099Z,34.00
2018-06-11T13:27:55.274Z,33.60
2018-06-11T13:30:23.414Z,33.20
2018-06-11T13:32:51.590Z,32.90
2018-06-11T13:35:19.741Z,32.50
2018-06-11T13:37:47.921Z,32.30
2018-06-11T13:40:16.095Z,32.10
2018-06-11T13:42:44.279Z,31.90
2018-06-11T13:45:12.532Z,31.80
2018-06-11T13:47:40.742Z,31.70
2018-06-11T13:50:08.937Z,31.50
2018-06-11T13:52:37.085Z,31.80
2018-06-11T13:55:05.278Z,32.20
2018-06-11T13:57:33.482Z,32.60
2018-06-11T14:00:01.833Z,33.00
2018-06-11T14:02:29.997Z,33.40
2018-06-11T14:04:58.223Z,33.80
2018-06-11T14:07:26.402Z,34.40
2018-06-11T14:09:54.571Z,34.80
2018-06-11T14:12:22.727Z,34.90
2018-06-11T14:14:50.981Z,34.90
2018-06-11T14:17:19.211Z,34.50
2018-06-11T14:19:47.428Z,34.10
2018-06-11T14:22:15.605Z,33.90
2018-06-11T14:24:43.784Z,33.30
2018-06-11T14:27:12.525Z,32.80
2018-06-11T14:29:40.692Z,32.20
2018-06-11T14:32:08.983Z,31.50
2018-06-11T14:34:37.165Z,30.80
2018-06-11T14:37:05.346Z,30.20
2018-06-11T14:39:33.503Z,29.80
2018-06-11T14:42:01.700Z,29.50
2018-06-11T14:44:29.909Z,29.20
2018-06-11T14:46:58.054Z,28.80
2018-06-11T14:49:26.278Z,28.60
2018-06-11T14:51:54.490Z,28.10
2018-06-11T14:54:22.662Z,27.60
2018-06-11T14:56:51.069Z,27.30
2018-06-11T14:59:19.247Z,27.00
2018-06-11T15:04:15.373Z,26.30
2018-06-11T15:06:43.541Z,26.00
2018-06-11T15:09:11.724Z,25.70
2018-06-11T15:11:39.917Z,25.50
2018-06-11T15:14:08.089Z,25.50
2018-06-11T15:16:42.985Z,25.80
2018-06-11T15:19:11.164Z,26.20
2018-06-11T15:21:39.381Z,26.60
2018-06-11T15:24:07.593Z,26.80
2018-06-11T15:26:35.768Z,26.90
2018-06-11T15:29:03.935Z,27.00
2018-06-11T15:31:32.109Z,27.20
2018-06-11T15:34:00.266Z,27.40
2018-06-11T15:36:28.512Z,27.70
2018-06-11T15:38:56.660Z,27.80
2018-06-11T15:41:25.005Z,28.00
2018-06-11T15:43:53.173Z,27.90
2018-06-11T15:46:21.402Z,27.80
2018-06-11T15:48:49.569Z,27.70
2018-06-11T15:51:17.780Z,27.40
2018-06-11T15:53:45.958Z,27.30
2018-06-11T15:56:14.147Z,27.30
2018-06-11T15:58:42.300Z,27.30
2018-06-11T16:01:10.532Z,27.20
2018-06-11T16:03:38.691Z,26.70
2018-06-11T16:06:06.869Z,26.30
2018-06-11T16:08:35.055Z,26.00
2018-06-11T16:11:03.242Z,25.70
2018-06-11T16:13:31.466Z,25.40
2018-06-11T16:18:27.849Z,24.80
2018-06-11T16:20:55.993Z,24.40
2018-06-11T16:23:24.212Z,24.30
2018-06-11T16:25:52.634Z,24.00
2018-06-11T16:28:20.855Z,23.90
2018-06-11T16:30:49.025Z,23.70
2018-06-11T16:33:17.202Z,23.60
2018-06-11T16:35:45.393Z,23.50
2018-06-11T16:38:13.554Z,23.30
2018-06-11T16:40:41.820Z,23.10
2018-06-11T16:43:10.105Z,22.90
2018-06-11T16:45:38.305Z,22.80
2018-06-11T16:48:06.576Z,22.60
2018-06-11T16:53:02.697Z,22.30
2018-06-11T16:55:30.911Z,22.20
2018-06-11T16:57:59.095Z,22.10
2018-06-11T17:00:27.374Z,21.90
2018-06-11T17:02:55.549Z,21.90
2018-06-11T17:05:23.873Z,21.80
2018-06-11T17:07:52.319Z,21.70
2018-06-11T17:10:20.615Z,21.70
2018-06-11T17:12:48.813Z,21.70
2018-06-11T17:15:16.980Z,21.60
2018-06-11T17:17:45.170Z,21.50
2018-06-11T17:20:13.345Z,21.40
2018-06-11T17:22:41.632Z,21.30
2018-06-11T17:25:09.885Z,21.40
2018-06-11T17:27:38.112Z,21.50
2018-06-11T17:30:06.364Z,21.50
2018-06-11T17:32:34.524Z,21.60
2018-06-11T17:35:02.717Z,21.70
2018-06-11T17:37:30.883Z,21.70
2018-06-11T17:39:59.109Z,21.70
2018-06-11T17:42:27.264Z,21.70
2018-06-11T17:44:55.477Z,21.50
2018-06-11T17:47:23.665Z,21.40
2018-06-11T17:49:51.918Z,21.30
2018-06-11T17:52:20.102Z,21.30
2018-06-11T17:54:48.301Z,21.20
2018-06-11T17:57:16.656Z,21.10
2018-06-11T17:59:44.797Z,21.10
2018-06-11T18:02:14.483Z,21.00
2018-06-11T18:04:42.698Z,20.90
2018-06-11T18:07:10.877Z,20.90
2018-06-11T18:09:39.115Z,20.80
2018-06-11T18:14:35.382Z,20.70
2018-06-11T18:17:03.510Z,20.70
2018-06-11T18:19:31.735Z,20.60
2018-06-11T18:21:59.920Z,20.50
2018-06-11T18:24:28.186Z,20.30
2018-06-11T18:26:56.389Z,20.20
2018-06-11T18:30:17.897Z,20.10
2018-06-11T18:32:46.096Z,20.00
2018-06-11T18:35:14.301Z,20.00
2018-06-11T18:37:42.492Z,20.00
2018-06-11T18:40:10.620Z,20.00
2018-06-11T18:42:38.812Z,20.00
2018-06-11T18:45:06.972Z,20.00
2018-06-11T18:47:35.176Z,19.90
2018-06-11T18:50:03.393Z,19.90
2018-06-11T18:52:31.565Z,19.90
2018-06-11T18:54:59.779Z,19.80
2018-06-11T18:57:27.929Z,19.80
2018-06-11T18:59:56.104Z,19.80
2018-06-11T19:02:24.278Z,19.80
2018-06-11T19:04:52.533Z,19.70
2018-06-11T19:07:20.677Z,19.70
2018-06-11T19:09:48.992Z,19.70
2018-06-11T19:12:17.152Z,19.60
2018-06-11T19:14:45.317Z,19.60
2018-06-11T19:17:13.573Z,19.50
2018-06-11T19:19:41.784Z,19.50
2018-06-11T19:22:09.973Z,19.50
2018-06-11T19:24:38.812Z,19.50
2018-06-11T19:27:07.017Z,19.50
2018-06-11T19:32:03.178Z,19.40
2018-06-11T19:34:31.421Z,19.40
2018-06-11T19:36:59.653Z,19.30
2018-06-11T19:39:27.892Z,19.30
2018-06-11T19:41:56.218Z,19.30
2018-06-11T19:44:24.481Z,19.20
2018-06-11T19:46:52.865Z,19.20
2018-06-11T19:49:21.134Z,19.20
2018-06-11T19:51:49.329Z,19.10
2018-06-11T19:54:17.537Z,19.10
2018-06-11T19:56:45.758Z,19.10
2018-06-11T19:59:13.981Z,19.10
2018-06-11T20:01:42.199Z,19.10
2018-06-11T20:04:10.408Z,19.00
2018-06-11T20:06:38.694Z,19.00
2018-06-11T20:09:08.248Z,19.00
2018-06-11T20:11:36.490Z,19.00
2018-06-11T20:14:04.771Z,19.00
2018-06-11T20:16:32.981Z,18.90
2018-06-11T20:19:01.206Z,18.90
2018-06-11T20:21:29.448Z,18.80
2018-06-11T20:23:57.637Z,18.70
2018-06-11T20:26:25.888Z,18.60
2018-06-11T20:28:54.158Z,18.40
2018-06-11T20:31:22.315Z,18.40
2018-06-11T20:33:50.692Z,18.20
2018-06-11T20:36:18.924Z,18.10
2018-06-11T20:38:47.181Z,18.10
2018-06-11T20:41:15.461Z,18.00
2018-06-11T20:43:43.619Z,17.90
2018-06-11T20:46:11.816Z,17.70
2018-06-11T20:48:40.047Z,17.60
2018-06-11T20:51:08.245Z,17.60
2018-06-11T20:53:36.570Z,17.50
2018-06-11T20:56:04.790Z,17.40
2018-06-11T20:58:32.990Z,17.30
2018-06-11T21:01:01.843Z,17.30
2018-06-11T21:03:30.077Z,17.20
2018-06-11T21:05:58.197Z,17.20
2018-06-11T21:08:26.355Z,17.20
2018-06-11T21:10:54.548Z,17.20
2018-06-11T21:13:22.705Z,17.20
2018-06-11T21:15:50.937Z,17.20
2018-06-11T21:18:19.072Z,17.20
2018-06-11T21:20:47.267Z,17.20
2018-06-11T21:23:15.448Z,17.20
2018-06-11T21:25:43.621Z,17.20
2018-06-11T21:28:11.817Z,17.20
2018-06-11T21:30:40.020Z,17.20
2018-06-11T21:33:08.208Z,17.20
2018-06-11T21:35:36.380Z,17.20
2018-06-11T21:38:04.564Z,17.10
2018-06-11T21:40:32.720Z,17.00
2018-06-11T21:43:01.207Z,16.90
2018-06-11T21:45:29.469Z,16.90
2018-06-11T21:47:57.609Z,16.90
2018-06-11T21:52:53.704Z,16.70
2018-06-11T21:55:21.876Z,16.60
2018-06-11T21:57:50.762Z,16.60
2018-06-11T22:00:19.056Z,16.50
2018-06-11T22:02:47.223Z,16.50
2018-06-11T22:05:15.406Z,16.50
2018-06-11T22:07:43.602Z,16.50
2018-06-11T22:10:11.808Z,16.40
2018-06-11T22:12:40.036Z,16.50
2018-06-11T22:15:08.241Z,16.50
2018-06-11T22:17:36.405Z,16.60
2018-06-11T22:20:04.615Z,16.50
2018-06-11T22:22:32.789Z,16.50
2018-06-11T22:25:00.997Z,16.50
2018-06-11T22:27:29.194Z,16.40
2018-06-11T22:29:57.830Z,16.30
2018-06-11T22:32:26.005Z,16.20
2018-06-11T22:34:54.175Z,16.20
2018-06-11T22:37:22.349Z,16.20
2018-06-11T22:39:50.521Z,16.30
2018-06-11T22:42:18.652Z,16.40
2018-06-11T22:44:46.822Z,16.50
2018-06-11T22:47:14.994Z,16.50
2018-06-11T22:49:43.163Z,16.40
2018-06-11T22:52:11.430Z,16.30
2018-06-11T22:54:39.607Z,16.30
2018-06-11T22:57:07.787Z,16.20
2018-06-11T22:59:35.984Z,16.10
2018-06-11T23:02:04.733Z,16.10
2018-06-11T23:04:32.920Z,16.20
2018-06-11T23:07:01.091Z,16.30
2018-06-11T23:09:29.302Z,16.30
2018-06-11T23:11:57.581Z,16.30
2018-06-11T23:14:25.779Z,16.30
2018-06-11T23:16:53.961Z,16.20
2018-06-11T23:19:22.111Z,16.10
2018-06-11T23:21:50.264Z,16.10
2018-06-11T23:24:18.445Z,16.00
2018-06-11T23:26:46.625Z,15.90
2018-06-11T23:29:14.776Z,15.80
2018-06-11T23:31:42.952Z,15.70
2018-06-11T23:34:11.182Z,15.70
2018-06-11T23:36:39.364Z,15.60
2018-06-11T23:39:07.966Z,15.50
2018-06-11T23:41:36.198Z,15.50
2018-06-11T23:44:04.438Z,15.40
2018-06-11T23:49:00.593Z,15.30
2018-06-11T23:51:28.773Z,15.20
2018-06-11T23:53:56.975Z,15.20
2018-06-11T23:56:25.157Z,15.20
2018-06-11T23:58:53.318Z,15.10
